createdAt,value
2022-08-29T00:00:28.263Z,101396.09
2022-08-29T00:02:59.937Z,101397.16
2022-08-29T00:05:32.802Z,101428.44
2022-08-29T00:08:00.833Z,101407.16
2022-08-29T00:10:28.921Z,101427.84
2022-08-29T00:12:57.757Z,101311.75
2022-08-29T00:15:25.016Z,101414.41
2022-08-29T00:17:51.500Z,101378.19
2022-08-29T00:20:22.906Z,101413.53
2022-08-29T00:22:58.541Z,101364.53
2022-08-29T00:25:26.064Z,101405.97
2022-08-29T00:27:52.875Z,101418.53
2022-08-29T00:30:21.068Z,101373.81
2022-08-29T00:32:48.140Z,101360.53
2022-08-29T00:35:17.838Z,101387.09
2022-08-29T00:37:44.772Z,101295.91
2022-08-29T00:40:15.196Z,101424.69
2022-08-29T00:42:42.055Z,101405.28
2022-08-29T00:45:11.352Z,101427.66
2022-08-29T00:47:47.177Z,101343.66
2022-08-29T00:50:22.656Z,101427.84
2022-08-29T00:52:49.335Z,101412.63
2022-08-29T00:55:22.426Z,101426.41
2022-08-29T00:57:56.218Z,101405.25
2022-08-29T01:00:23.371Z,101417.94
2022-08-29T01:02:51.344Z,101316.50
2022-08-29T01:05:19.725Z,101424.84
2022-08-29T01:07:47.710Z,101417.75
2022-08-29T01:10:35.569Z,101415.16
2022-08-29T01:13:04.472Z,101439.31
2022-08-29T01:15:33.649Z,101425.69
2022-08-29T01:18:15.905Z,101391.03
2022-08-29T01:21:01.841Z,101436.94
2022-08-29T01:24:09.901Z,101439.44
2022-08-29T01:26:37.084Z,101318.16
2022-08-29T01:29:04.182Z,101423.19
2022-08-29T01:31:56.875Z,101440.06
2022-08-29T01:34:26.926Z,101432.19
2022-08-29T01:36:57.557Z,101405.97
2022-08-29T01:39:27.732Z,101429.06
2022-08-29T01:41:54.862Z,101423.94
2022-08-29T01:44:25.423Z,101396.00
2022-08-29T01:47:00.258Z,101344.22
2022-08-29T01:49:29.701Z,101450.00
2022-08-29T01:51:56.135Z,101420.63
2022-08-29T01:54:22.673Z,101355.81
2022-08-29T01:56:54.970Z,101450.22
2022-08-29T01:59:26.181Z,101288.75
2022-08-29T02:02:08.098Z,101458.59
2022-08-29T02:04:35.326Z,101467.81
2022-08-29T02:07:01.964Z,101431.84
2022-08-29T02:09:29.427Z,101467.75
2022-08-29T02:11:58.050Z,101461.69
2022-08-29T02:14:25.178Z,101362.22
2022-08-29T02:16:51.848Z,101415.94
2022-08-29T02:19:18.600Z,101459.84
2022-08-29T02:21:45.265Z,101466.06
2022-08-29T02:24:25.005Z,101427.66
2022-08-29T02:26:53.247Z,101450.69
2022-08-29T02:29:19.734Z,101436.97
2022-08-29T02:31:46.279Z,101367.53
2022-08-29T02:34:13.004Z,101397.03
2022-08-29T02:36:41.410Z,101357.78
2022-08-29T02:39:09.744Z,101468.75
2022-08-29T02:41:37.408Z,101449.31
2022-08-29T02:44:05.000Z,101454.59
2022-08-29T02:46:31.710Z,101462.31
2022-08-29T02:49:01.252Z,101428.47
2022-08-29T02:51:31.197Z,101426.63
2022-08-29T02:53:58.453Z,101454.19
2022-08-29T02:56:25.235Z,101453.09
2022-08-29T02:58:51.873Z,101331.81
2022-08-29T03:01:20.544Z,101335.38
2022-08-29T03:03:47.239Z,101378.84
2022-08-29T03:06:13.709Z,101395.41
2022-08-29T03:08:40.796Z,101420.41
2022-08-29T03:11:07.705Z,101349.13
2022-08-29T03:13:34.390Z,101421.94
2022-08-29T03:16:02.325Z,101270.19
2022-08-29T03:18:29.723Z,101421.06
2022-08-29T03:20:57.384Z,101334.97
2022-08-29T03:23:23.851Z,101354.06
2022-08-29T03:25:50.349Z,101411.72
2022-08-29T03:28:17.276Z,101425.09
2022-08-29T03:30:43.776Z,101428.56
2022-08-29T03:33:12.007Z,101345.63
2022-08-29T03:35:39.248Z,101422.56
2022-08-29T03:38:05.837Z,101396.31
2022-08-29T03:40:32.742Z,101384.31
2022-08-29T03:43:00.457Z,101417.75
2022-08-29T03:45:26.913Z,101427.88
2022-08-29T03:47:53.475Z,101408.41
2022-08-29T03:50:20.887Z,101407.53
2022-08-29T03:52:48.462Z,101406.72
2022-08-29T03:55:15.992Z,101334.41
2022-08-29T03:57:43.231Z,101329.03
2022-08-29T04:00:13.963Z,101415.16
2022-08-29T04:02:40.797Z,101389.47
2022-08-29T04:05:11.128Z,101409.97
2022-08-29T04:07:40.886Z,101327.97
2022-08-29T04:10:09.120Z,101254.81
2022-08-29T04:12:35.911Z,101425.41
2022-08-29T04:18:13.011Z,101381.47
2022-08-29T04:20:44.980Z,101320.09
2022-08-29T04:23:13.397Z,101320.59
2022-08-29T04:25:42.324Z,101345.66
2022-08-29T04:28:17.797Z,101355.44
2022-08-29T04:30:51.435Z,101425.50
2022-08-29T04:33:22.474Z,101422.44
2022-08-29T04:35:50.105Z,101324.34
2022-08-29T04:38:16.611Z,101295.03
2022-08-29T04:40:51.998Z,101397.53
2022-08-29T04:43:18.532Z,101351.75
2022-08-29T04:45:45.013Z,101428.31
2022-08-29T04:48:11.500Z,101430.66
2022-08-29T04:50:41.003Z,101393.31
2022-08-29T04:53:07.460Z,101429.22
2022-08-29T04:55:36.470Z,101408.38
2022-08-29T04:58:04.297Z,101369.88
2022-08-29T05:00:30.778Z,101299.66
2022-08-29T05:02:57.824Z,101417.00
2022-08-29T05:05:25.140Z,101448.03
2022-08-29T05:07:55.089Z,101431.16
2022-08-29T05:10:22.590Z,101277.50
2022-08-29T05:12:49.306Z,101455.16
2022-08-29T05:15:16.435Z,101453.22
2022-08-29T05:17:43.619Z,101451.41
2022-08-29T05:20:11.347Z,101457.22
2022-08-29T05:22:39.149Z,101462.31
2022-08-29T05:25:06.198Z,101397.75
2022-08-29T05:27:32.723Z,101443.16
2022-08-29T05:29:59.845Z,101470.72
2022-08-29T05:32:26.484Z,101374.25
2022-08-29T05:34:53.032Z,101433.56
2022-08-29T05:37:20.940Z,101376.19
2022-08-29T05:39:48.958Z,101459.41
2022-08-29T05:42:17.680Z,101424.28
2022-08-29T05:44:44.730Z,101357.78
2022-08-29T05:47:13.516Z,101484.00
2022-08-29T05:49:42.417Z,101466.09
2022-08-29T05:52:10.339Z,101467.06
2022-08-29T05:54:42.602Z,101496.31
2022-08-29T05:57:15.395Z,101465.06
2022-08-29T05:59:44.788Z,101459.81
2022-08-29T06:02:12.129Z,101441.53
2022-08-29T06:04:40.806Z,101420.59
2022-08-29T06:07:08.307Z,101461.34
2022-08-29T06:09:36.321Z,101447.84
2022-08-29T06:12:06.587Z,101405.56
2022-08-29T06:14:33.184Z,101503.13
2022-08-29T06:16:59.638Z,101382.38
2022-08-29T06:19:26.138Z,101463.59
2022-08-29T06:21:56.053Z,101476.75
2022-08-29T06:24:22.501Z,101391.63
2022-08-29T06:26:48.895Z,101468.25
2022-08-29T06:29:16.507Z,101488.78
2022-08-29T06:31:42.978Z,101474.28
2022-08-29T06:34:09.806Z,101500.97
2022-08-29T06:36:37.305Z,101467.41
2022-08-29T06:39:07.194Z,101504.91
2022-08-29T06:41:34.723Z,101484.88
2022-08-29T06:44:01.537Z,101401.31
2022-08-29T06:46:37.462Z,101522.25
2022-08-29T06:49:06.962Z,101502.47
2022-08-29T06:51:37.453Z,101523.19
2022-08-29T06:54:07.179Z,101486.97
2022-08-29T06:56:37.109Z,101505.72
2022-08-29T06:59:04.777Z,101520.97
2022-08-29T07:01:31.365Z,101503.88
2022-08-29T07:04:00.411Z,101497.97
2022-08-29T07:06:27.622Z,101481.84
2022-08-29T07:08:55.610Z,101484.84
2022-08-29T07:11:26.894Z,101461.13
2022-08-29T07:13:58.898Z,101480.03
2022-08-29T07:16:26.418Z,101387.47
2022-08-29T07:18:52.929Z,101390.69
2022-08-29T07:21:21.756Z,101493.25
2022-08-29T07:23:49.878Z,101406.16
2022-08-29T07:26:18.156Z,101449.28
2022-08-29T07:28:47.442Z,101454.34
2022-08-29T07:31:14.226Z,101463.56
2022-08-29T07:33:41.702Z,101490.16
2022-08-29T07:36:08.777Z,101426.84
2022-08-29T07:38:36.318Z,101505.34
2022-08-29T07:41:16.334Z,101508.78
2022-08-29T07:43:43.669Z,101486.84
2022-08-29T07:46:17.169Z,101514.56
2022-08-29T07:48:44.485Z,101495.56
2022-08-29T07:51:15.608Z,101502.06
2022-08-29T07:53:42.408Z,101478.34
2022-08-29T07:56:24.766Z,101479.00
2022-08-29T07:58:51.729Z,101513.28
2022-08-29T08:01:21.180Z,101501.53
2022-08-29T08:03:50.758Z,101513.88
2022-08-29T08:06:22.624Z,101404.94
2022-08-29T08:08:49.958Z,101497.66
2022-08-29T08:11:17.691Z,101427.69
2022-08-29T08:13:44.543Z,101496.56
2022-08-29T08:16:15.326Z,101488.13
2022-08-29T08:18:43.662Z,101467.94
2022-08-29T08:21:11.403Z,101512.38
2022-08-29T08:23:38.667Z,101426.06
2022-08-29T08:26:05.827Z,101429.75
2022-08-29T08:28:32.524Z,101502.56
2022-08-29T08:31:05.980Z,101503.88
2022-08-29T08:33:35.279Z,101447.44
2022-08-29T08:36:12.712Z,101493.69
2022-08-29T08:38:39.462Z,101388.66
2022-08-29T08:41:18.118Z,101491.97
2022-08-29T08:43:54.997Z,101450.47
2022-08-29T08:46:43.606Z,101450.50
2022-08-29T08:49:33.777Z,101488.06
2022-08-29T08:52:20.628Z,101466.00
2022-08-29T08:54:55.217Z,101500.28
2022-08-29T08:57:22.339Z,101496.81
2022-08-29T08:59:58.959Z,101519.09
2022-08-29T09:02:50.157Z,101530.13
2022-08-29T09:05:39.746Z,101511.91
2022-08-29T09:08:21.895Z,101528.81
2022-08-29T09:11:01.189Z,101524.91
2022-08-29T09:13:37.179Z,101518.34
2022-08-29T09:16:09.632Z,101523.97
2022-08-29T09:18:40.680Z,101533.28
2022-08-29T09:21:36.975Z,101496.19
2022-08-29T09:23:59.825Z,101520.09
2022-08-29T09:26:29.708Z,101487.25
2022-08-29T09:28:57.230Z,101423.75
2022-08-29T09:31:34.299Z,101512.97
2022-08-29T09:34:07.589Z,101514.16
2022-08-29T09:36:47.985Z,101512.25
2022-08-29T09:39:34.274Z,101517.59
2022-08-29T09:42:13.490Z,101518.81
2022-08-29T09:44:41.666Z,101456.00
2022-08-29T09:47:11.175Z,101511.72
2022-08-29T09:49:40.145Z,101486.25
2022-08-29T09:52:17.016Z,101427.06
2022-08-29T09:54:44.309Z,101434.66
2022-08-29T09:57:14.468Z,101514.81
2022-08-29T09:59:45.189Z,101501.38
2022-08-29T10:02:27.768Z,101503.09
2022-08-29T10:05:00.000Z,101492.75
2022-08-29T10:07:37.455Z,101456.66
2022-08-29T10:10:16.116Z,101479.34
2022-08-29T10:13:05.894Z,101491.50
2022-08-29T10:15:51.433Z,101443.72
2022-08-29T10:18:49.648Z,101456.44
2022-08-29T10:21:34.931Z,101501.47
2022-08-29T10:24:15.895Z,101491.94
2022-08-29T10:27:04.971Z,101453.38
2022-08-29T10:30:19.422Z,101495.56
2022-08-29T10:32:48.760Z,101492.91
2022-08-29T10:35:43.937Z,101459.09
2022-08-29T10:38:16.324Z,101484.66
2022-08-29T10:40:48.587Z,101447.78
2022-08-29T10:43:21.401Z,101467.44
2022-08-29T10:46:32.877Z,101455.81
2022-08-29T10:49:18.211Z,101468.03
2022-08-29T10:52:10.717Z,101469.78
2022-08-29T10:54:52.013Z,101430.34
2022-08-29T10:57:47.303Z,101428.69
2022-08-29T11:00:19.874Z,101461.31
2022-08-29T11:03:07.176Z,101464.94
2022-08-29T11:05:41.866Z,101445.47
2022-08-29T11:08:15.434Z,101429.19
2022-08-29T11:10:44.813Z,101458.59
2022-08-29T11:13:15.017Z,101443.97
2022-08-29T11:15:43.991Z,101446.59
2022-08-29T11:18:28.929Z,101413.75
2022-08-29T11:21:01.152Z,101435.47
2022-08-29T11:23:39.546Z,101422.56
2022-08-29T11:26:18.841Z,101383.75
2022-08-29T11:29:07.035Z,101417.44
2022-08-29T11:32:01.471Z,101436.09
2022-08-29T11:34:48.634Z,101416.31
2022-08-29T11:37:33.336Z,101417.84
2022-08-29T11:40:47.212Z,101429.25
2022-08-29T11:43:19.318Z,101339.84
2022-08-29T11:45:57.007Z,101405.66
2022-08-29T11:48:39.623Z,101416.13
2022-08-29T11:51:36.191Z,101400.03
2022-08-29T11:54:25.180Z,101416.28
2022-08-29T11:57:00.830Z,101410.03
2022-08-29T11:59:49.016Z,101414.47
2022-08-29T12:02:27.606Z,101418.94
2022-08-29T12:04:56.568Z,101410.09
2022-08-29T12:08:19.954Z,101360.50
2022-08-29T16:50:47.870Z,101111.03
2022-08-29T16:53:14.273Z,101178.28
2022-08-29T16:55:40.685Z,101218.34
2022-08-29T16:58:25.903Z,101198.22
2022-08-29T17:00:53.362Z,101163.31
2022-08-29T17:03:20.405Z,101203.97
2022-08-29T17:05:46.966Z,101177.25
2022-08-29T17:08:13.378Z,101210.19
2022-08-29T17:10:39.805Z,101224.25
2022-08-29T17:13:06.353Z,101202.41
2022-08-29T17:15:32.858Z,101185.78
2022-08-29T17:17:59.969Z,101197.38
2022-08-29T17:20:26.759Z,101172.72
2022-08-29T17:22:53.568Z,101201.16
2022-08-29T17:25:22.455Z,101184.09
2022-08-29T17:28:14.215Z,101203.63
2022-08-29T17:30:37.334Z,101206.66
2022-08-29T17:33:04.115Z,101217.56
2022-08-29T17:35:33.112Z,101193.09
2022-08-29T17:37:59.695Z,101146.47
2022-08-29T17:40:26.210Z,101153.56
2022-08-29T17:42:52.999Z,101211.22
2022-08-29T17:45:19.399Z,101209.84
2022-08-29T17:47:46.065Z,101073.75
2022-08-29T17:50:12.708Z,101173.31
2022-08-29T17:52:41.767Z,101210.88
2022-08-29T17:55:08.650Z,101193.44
2022-08-29T17:57:35.806Z,101185.75
2022-08-29T18:00:03.856Z,101195.47
2022-08-29T18:02:31.967Z,101200.59
2022-08-29T18:04:58.555Z,101201.56
2022-08-29T18:07:24.998Z,101198.63
2022-08-29T18:09:55.707Z,101208.78
2022-08-29T18:12:23.577Z,101104.56
2022-08-29T18:14:50.098Z,101183.03
2022-08-29T18:17:16.558Z,101172.81
2022-08-29T18:19:43.058Z,101173.00
2022-08-29T18:22:16.398Z,101172.25
2022-08-29T18:24:42.893Z,101170.50
2022-08-29T18:27:11.092Z,101201.19
2022-08-29T18:29:37.517Z,101196.41
2022-08-29T18:32:04.035Z,101185.13
2022-08-29T18:34:30.528Z,101193.66
2022-08-29T18:36:57.000Z,101203.41
2022-08-29T18:39:23.576Z,101184.81
2022-08-29T18:41:52.099Z,101181.06
2022-08-29T18:44:18.687Z,101207.59
2022-08-29T18:46:48.198Z,101186.66
2022-08-29T18:49:15.243Z,101186.13
2022-08-29T18:51:44.074Z,101200.09
2022-08-29T18:54:14.258Z,101113.25
2022-08-29T18:56:44.109Z,101210.94
2022-08-29T18:59:10.587Z,101206.69
2022-08-29T19:01:43.270Z,101139.16
2022-08-29T19:04:09.747Z,101212.38
2022-08-29T19:06:36.301Z,101201.03
2022-08-29T19:09:02.794Z,101208.72
2022-08-29T19:11:29.391Z,101211.53
2022-08-29T19:13:56.013Z,101214.44
2022-08-29T19:16:23.792Z,101200.22
2022-08-29T19:18:50.994Z,101223.38
2022-08-29T19:21:17.428Z,101197.66
2022-08-29T19:23:47.439Z,101152.34
2022-08-29T19:26:28.365Z,101147.22
2022-08-29T19:28:58.976Z,101203.41
2022-08-29T19:31:27.596Z,101212.50
2022-08-29T19:33:54.143Z,101231.13
2022-08-29T19:36:21.102Z,101164.13
2022-08-29T19:38:47.522Z,101200.09
2022-08-29T19:41:15.396Z,101220.03
2022-08-29T19:43:44.441Z,101229.03
2022-08-29T19:46:17.943Z,101231.59
2022-08-29T19:48:48.539Z,101161.13
2022-08-29T19:51:24.491Z,101204.22
2022-08-29T19:53:51.728Z,101118.44
2022-08-29T19:56:18.201Z,101209.47
2022-08-29T19:58:45.065Z,101216.19
2022-08-29T20:01:11.830Z,101100.97
2022-08-29T20:03:40.677Z,101122.00
2022-08-29T20:06:07.667Z,101232.38
2022-08-29T20:09:02.570Z,101110.94
2022-08-29T20:11:42.878Z,101221.31
2022-08-29T20:14:11.068Z,101157.28
2022-08-29T20:16:41.755Z,101223.47
2022-08-29T20:19:08.398Z,101228.41
2022-08-29T20:21:35.057Z,101223.88
2022-08-29T20:24:02.630Z,101224.28
2022-08-29T20:26:33.253Z,101248.28
2022-08-29T20:29:01.624Z,101207.69
2022-08-29T20:31:28.682Z,101206.19
2022-08-29T20:33:55.336Z,101156.09
2022-08-29T20:36:42.116Z,101205.38
2022-08-29T20:39:11.571Z,101240.78
2022-08-29T20:41:38.293Z,101154.31
2022-08-29T20:44:07.650Z,101164.69
2022-08-29T20:46:40.278Z,101235.19
2022-08-29T20:49:11.990Z,101239.25
2022-08-29T20:51:39.856Z,101246.38
2022-08-29T20:54:06.604Z,101249.25
2022-08-29T20:56:33.220Z,101247.72
2022-08-29T20:58:59.619Z,101227.81
2022-08-29T21:01:26.091Z,101135.78
2022-08-29T21:04:11.253Z,101188.00
2022-08-29T21:06:37.703Z,101226.03
2022-08-29T21:09:05.698Z,101234.16
2022-08-29T21:11:32.199Z,101241.81
2022-08-29T21:13:58.625Z,101178.34
2022-08-29T21:16:25.124Z,101225.97
2022-08-29T21:18:52.999Z,101138.53
2022-08-29T21:21:24.012Z,101196.22
2022-08-29T21:23:51.701Z,101183.47
2022-08-29T21:26:18.529Z,101232.50
2022-08-29T21:28:47.077Z,101236.72
2022-08-29T21:31:15.413Z,101233.28
2022-08-29T21:33:44.644Z,101239.75
2022-08-29T21:36:20.431Z,101247.00
2022-08-29T21:38:50.904Z,101238.22
2022-08-29T21:41:17.368Z,101222.03
2022-08-29T21:43:43.863Z,101239.19
2022-08-29T21:46:17.027Z,101238.50
2022-08-29T21:48:43.885Z,101153.03
2022-08-29T21:51:11.534Z,101088.44
2022-08-29T21:53:41.635Z,101218.78
2022-08-29T21:56:08.470Z,101234.59
2022-08-29T21:58:35.207Z,101254.44
2022-08-29T22:01:01.681Z,101132.66
2022-08-29T22:03:28.363Z,101252.75
2022-08-29T22:05:54.955Z,101247.50
2022-08-29T22:08:21.547Z,101246.06
2022-08-29T22:10:48.227Z,101249.88
2022-08-29T22:13:16.183Z,101253.03
2022-08-29T22:16:01.418Z,101235.19
2022-08-29T22:18:27.905Z,101214.63
2022-08-29T22:20:56.919Z,101259.16
2022-08-29T22:23:26.415Z,101246.00
2022-08-29T22:25:53.952Z,101165.03
2022-08-29T22:28:20.526Z,101220.94
2022-08-29T22:30:46.944Z,101236.19
2022-08-29T22:33:16.536Z,101136.66
2022-08-29T22:35:43.360Z,101196.13
2022-08-29T22:38:09.812Z,101142.81
2022-08-29T22:40:36.472Z,101210.78
2022-08-29T22:43:03.067Z,101243.56
2022-08-29T22:45:29.586Z,101221.09
2022-08-29T22:47:56.037Z,101242.56
2022-08-29T22:50:24.658Z,101148.47
2022-08-29T22:52:54.778Z,101140.63
2022-08-29T22:57:47.764Z,101265.88
2022-08-29T23:00:20.973Z,101262.25
2022-08-29T23:02:48.195Z,101242.78
2022-08-29T23:05:15.486Z,101261.97
2022-08-29T23:07:42.136Z,101244.31
2022-08-29T23:10:09.760Z,101197.22
2022-08-29T23:12:36.469Z,101245.19
2022-08-29T23:15:09.903Z,101257.41
2022-08-29T23:17:36.417Z,101203.13
2022-08-29T23:20:04.334Z,101211.28
2022-08-29T23:22:31.396Z,101228.16
2022-08-29T23:24:59.089Z,101184.47
2022-08-29T23:27:28.636Z,101245.91
2022-08-29T23:29:55.126Z,101242.28
2022-08-29T23:32:21.634Z,101129.88
2022-08-29T23:34:48.114Z,101229.00
2022-08-29T23:37:14.547Z,101232.63
2022-08-29T23:39:40.967Z,101209.28
2022-08-29T23:42:07.784Z,101235.03
2022-08-29T23:44:35.403Z,101155.13
2022-08-29T23:47:01.853Z,101219.78
2022-08-29T23:49:28.436Z,101233.41
2022-08-29T23:51:54.882Z,101109.22
2022-08-29T23:54:21.405Z,101203.75
2022-08-29T23:56:48.015Z,101225.81
2022-08-29T23:59:34.514Z,101148.94
